Time;durP1;ratioP1;P1;durP2;ratioP2;P2;SDS_P1;SDS_P2;PMS_P1;PMS_P2;Temp;Humidity;BMP_temperature;BMP_pressure;BME280_temperature;BME280_humidity;BME280_pressure;Samples;Min_cycle;Max_cycle;Signal;HPM_P1;HPM_P2
2022/12/15 00:39:32;;;;;;;;;;;-3.70;90.90;;;;;;5034991;28;20020;-76
2022/12/15 00:41:58;;;;;;;;;;;-3.70;90.90;;;;;;5037397;28;19944;-76
2022/12/15 00:44:23;;;;;;;;;;;-3.70;90.90;;;;;;5033376;28;19929;-76
2022/12/15 00:46:55;;;;;;;;;;;-3.70;90.90;;;;;;5039425;28;19928;-75
2022/12/15 01:22:22;;;;;;;;;;;-3.70;90.90;;;;;;5037364;28;20634;-76
2022/12/15 01:24:47;;;;;;;;;;;-3.70;90.90;;;;;;5034854;28;19929;-76
2022/12/15 01:27:12;;;;;;;;;;;-3.70;90.90;;;;;;5049929;28;20306;-76
2022/12/15 01:29:38;;;;;;;;;;;-3.60;91.00;;;;;;5039163;28;19974;-76
2022/12/15 01:32:03;;;;;;;;;;;-3.60;90.90;;;;;;5036298;28;19959;-76
2022/12/15 01:34:29;;;;;;;;;;;-3.60;90.90;;;;;;5034921;28;20302;-76
2022/12/15 01:36:54;;;;;;;;;;;-3.60;90.90;;;;;;5038666;28;19974;-76
2022/12/15 01:39:20;;;;;;;;;;;-3.60;90.90;;;;;;5034301;28;19974;-76
2022/12/15 01:41:45;;;;;;;;;;;-3.60;91.30;;;;;;5035828;28;20558;-77
2022/12/15 01:44:29;;;;;;;;;;;-3.60;90.90;;;;;;5014323;28;20027;-76
2022/12/15 01:46:54;;;;;;;;;;;-3.60;90.90;;;;;;5018950;28;19929;-76
2022/12/15 01:49:20;;;;;;;;;;;-3.60;90.90;;;;;;5032870;28;19982;-76
2022/12/15 01:51:47;;;;;;;;;;;-3.60;90.90;;;;;;5004292;28;19968;-76
2022/12/15 01:54:19;;;;;;;;;;;-3.60;90.90;;;;;;5034760;28;19927;-76
2022/12/15 01:56:46;;;;;;;;;;;-3.60;90.90;;;;;;5040096;28;19928;-74
2022/12/15 01:59:13;;;;;;;;;;;-3.60;90.90;;;;;;5046384;28;19925;-76
2022/12/15 02:01:39;;;;;;;;;;;-3.50;91.00;;;;;;5037429;28;19927;-76
2022/12/15 02:04:04;;;;;;;;;;;-3.50;91.00;;;;;;5034975;28;19925;-76
2022/12/15 02:06:30;;;;;;;;;;;-3.50;91.00;;;;;;5035286;28;19943;-76
2022/12/15 02:08:56;;;;;;;;;;;-3.50;91.00;;;;;;5034511;28;20314;-76
2022/12/15 02:11:28;;;;;;;;;;;-3.50;91.00;;;;;;5046529;28;19921;-76
2022/12/15 02:13:57;;;;;;;;;;;-3.40;91.00;;;;;;5034408;28;19920;-74
2022/12/15 02:16:52;;;;;;;;;;;-3.40;91.00;;;;;;5034365;28;19920;-76
2022/12/15 02:19:23;;;;;;;;;;;-3.40;91.00;;;;;;5014966;28;20419;-75
2022/12/15 02:21:55;;;;;;;;;;;-3.40;90.90;;;;;;5019085;28;19976;-76
2022/12/15 02:24:36;;;;;;;;;;;-3.40;91.00;;;;;;5032941;28;20047;-75
2022/12/15 02:27:11;;;;;;;;;;;-3.40;90.90;;;;;;5033248;28;19921;-76
2022/12/15 02:29:42;;;;;;;;;;;-3.40;90.90;;;;;;5034420;28;19928;-75
2022/12/15 02:32:12;;;;;;;;;;;-3.40;90.90;;;;;;5032342;28;19921;-76
2022/12/15 02:34:53;;;;;;;;;;;-3.40;90.90;;;;;;5019734;28;20548;-75
2022/12/15 02:37:21;;;;;;;;;;;-3.40;90.90;;;;;;5040413;28;19921;-76
2022/12/15 02:39:47;;;;;;;;;;;-3.30;91.00;;;;;;5035281;28;20505;-76
2022/12/15 02:42:12;;;;;;;;;;;-3.40;90.90;;;;;;5033764;28;20007;-76
2022/12/15 02:44:41;;;;;;;;;;;-3.40;90.90;;;;;;5034787;28;19920;-76
2022/12/15 02:47:18;;;;;;;;;;;-3.40;90.90;;;;;;5035063;28;19924;-76
2022/12/15 02:50:03;;;;;;;;;;;-3.40;90.90;;;;;;5049550;28;19939;-75
2022/12/15 02:52:31;;;;;;;;;;;-3.40;90.90;;;;;;5046217;28;19921;-76
2022/12/15 02:54:59;;;;;;;;;;;-3.40;90.90;;;;;;5030310;28;20331;-76
2022/12/15 02:57:28;;;;;;;;;;;-3.40;90.90;;;;;;5032386;28;20421;-76
2022/12/15 02:59:56;;;;;;;;;;;-3.40;90.90;;;;;;5019109;28;19928;-76
2022/12/15 03:02:21;;;;;;;;;;;-3.40;90.90;;;;;;5023234;28;19925;-76
2022/12/15 03:04:47;;;;;;;;;;;-3.40;90.90;;;;;;5049622;28;19928;-76
2022/12/15 03:07:13;;;;;;;;;;;-3.40;90.90;;;;;;5031057;28;20508;-76
2022/12/15 03:09:38;;;;;;;;;;;-3.40;90.90;;;;;;5036235;28;19976;-76
2022/12/15 03:12:04;;;;;;;;;;;-3.30;91.00;;;;;;5018582;28;19928;-75
2022/12/15 03:14:29;;;;;;;;;;;-3.30;91.30;;;;;;5036908;28;19959;-76
2022/12/15 03:16:55;;;;;;;;;;;-3.30;91.00;;;;;;5036526;28;20078;-76
2022/12/15 03:19:20;;;;;;;;;;;-3.30;90.90;;;;;;5039872;28;19928;-76
2022/12/15 03:21:46;;;;;;;;;;;-3.30;91.00;;;;;;5038574;28;20353;-75
2022/12/15 03:24:11;;;;;;;;;;;-3.30;90.90;;;;;;5022189;28;19927;-75
2022/12/15 03:26:37;;;;;;;;;;;-3.30;90.90;;;;;;5023119;28;19920;-76
2022/12/15 03:29:02;;;;;;;;;;;-3.30;91.00;;;;;;5039691;28;20338;-75
2022/12/15 03:31:27;;;;;;;;;;;-3.30;90.90;;;;;;5022124;28;19928;-76
2022/12/15 03:33:54;;;;;;;;;;;-3.30;90.90;;;;;;5038168;28;19921;-76
2022/12/15 03:36:21;;;;;;;;;;;-3.30;90.90;;;;;;5031027;28;19927;-76
2022/12/15 03:38:47;;;;;;;;;;;-3.30;90.90;;;;;;5027815;28;19983;-76
2022/12/15 03:41:12;;;;;;;;;;;-3.30;90.90;;;;;;5018771;28;19925;-76
2022/12/15 03:43:38;;;;;;;;;;;-3.30;90.90;;;;;;5035619;28;20436;-76
2022/12/15 03:46:03;;;;;;;;;;;-3.30;90.90;;;;;;5036666;28;19936;-75
2022/12/15 03:48:29;;;;;;;;;;;-3.30;90.90;;;;;;5038819;28;19925;-76
2022/12/15 03:50:54;;;;;;;;;;;-3.30;90.90;;;;;;5035921;28;20370;-77
2022/12/15 03:53:20;;;;;;;;;;;-3.30;90.90;;;;;;5036762;28;19916;-76
2022/12/15 03:55:45;;;;;;;;;;;-3.30;90.90;;;;;;5021669;28;20309;-75
2022/12/15 03:58:11;;;;;;;;;;;-3.30;90.90;;;;;;5050285;28;19956;-76
2022/12/15 04:00:36;;;;;;;;;;;-3.30;90.90;;;;;;5038760;28;20556;-76
2022/12/15 04:03:02;;;;;;;;;;;-3.20;90.90;;;;;;5036094;28;19924;-75
2022/12/15 04:05:28;;;;;;;;;;;-3.20;91.00;;;;;;5037437;28;19921;-76
2022/12/15 04:07:54;;;;;;;;;;;-3.30;90.90;;;;;;5019889;28;20516;-76
2022/12/15 04:10:20;;;;;;;;;;;-3.30;90.90;;;;;;5036017;28;19936;-75
2022/12/15 04:12:45;;;;;;;;;;;-3.30;90.90;;;;;;5035607;28;19975;-75
2022/12/15 04:15:11;;;;;;;;;;;-3.30;90.90;;;;;;5036052;28;19940;-75
2022/12/15 04:17:36;;;;;;;;;;;-3.40;90.90;;;;;;5037510;28;20640;-76
2022/12/15 04:20:08;;;;;;;;;;;-3.30;90.90;;;;;;5035773;28;19920;-76
2022/12/15 04:22:37;;;;;;;;;;;-3.40;90.90;;;;;;5038996;28;20006;-76
2022/12/15 05:33:26;;;;;;;;;;;-3.40;91.00;;;;;;5026296;28;21306;-75
2022/12/15 05:35:53;;;;;;;;;;;-3.40;91.00;;;;;;5031099;28;19925;-75
2022/12/15 05:38:19;;;;;;;;;;;-3.40;91.00;;;;;;5030170;28;19921;-75
2022/12/15 05:40:44;;;;;;;;;;;-3.40;91.00;;;;;;5035171;28;19921;-76
2022/12/15 05:43:10;;;;;;;;;;;-3.40;91.00;;;;;;5044994;28;19955;-75
2022/12/15 05:45:35;;;;;;;;;;;-3.40;90.90;;;;;;5034318;28;19925;-76
2022/12/15 05:48:01;;;;;;;;;;;-3.40;90.90;;;;;;5048325;28;20581;-76
2022/12/15 05:50:27;;;;;;;;;;;-3.40;90.90;;;;;;5028629;28;20028;-75
2022/12/15 05:52:53;;;;;;;;;;;-3.40;90.90;;;;;;5045693;28;19928;-76
2022/12/15 05:55:18;;;;;;;;;;;-3.50;90.90;;;;;;5037859;28;20341;-75
2022/12/15 05:57:49;;;;;;;;;;;-3.50;90.90;;;;;;5033340;28;19927;-75
2022/12/15 06:00:14;;;;;;;;;;;-3.50;90.90;;;;;;5014437;28;19967;-76
2022/12/15 06:02:40;;;;;;;;;;;-3.50;90.90;;;;;;5048620;28;20337;-76
2022/12/15 06:05:06;;;;;;;;;;;-3.50;90.90;;;;;;5031583;28;19990;-73
2022/12/15 06:07:31;;;;;;;;;;;-3.50;90.90;;;;;;5033676;28;19920;-75
2022/12/15 06:09:57;;;;;;;;;;;-3.50;90.90;;;;;;5015438;28;19935;-76
2022/12/15 06:12:22;;;;;;;;;;;-3.50;90.90;;;;;;5030215;28;19925;-74
2022/12/15 06:14:47;;;;;;;;;;;-3.50;90.90;;;;;;5032883;28;20437;-74
2022/12/15 06:17:13;;;;;;;;;;;-3.50;91.00;;;;;;5031828;28;19921;-75
2022/12/15 06:19:38;;;;;;;;;;;-3.50;91.00;;;;;;5030368;28;19921;-76
2022/12/15 06:22:04;;;;;;;;;;;-3.50;91.00;;;;;;5031536;28;20624;-75
2022/12/15 06:24:29;;;;;;;;;;;-3.60;90.90;;;;;;5032115;28;19924;-76
2022/12/15 06:26:55;;;;;;;;;;;-3.60;90.90;;;;;;5019570;28;20066;-75
2022/12/15 06:29:21;;;;;;;;;;;-3.60;90.90;;;;;;5034302;28;19921;-76
2022/12/15 06:31:46;;;;;;;;;;;-3.60;90.90;;;;;;5029957;28;19923;-76
2022/12/15 06:34:12;;;;;;;;;;;-3.70;90.90;;;;;;5026429;28;19927;-76
2022/12/15 06:36:37;;;;;;;;;;;-3.70;90.90;;;;;;5013325;28;19927;-76
2022/12/15 06:39:03;;;;;;;;;;;-3.70;90.90;;;;;;5027199;28;19921;-75
2022/12/15 06:41:29;;;;;;;;;;;-3.70;90.90;;;;;;5027841;28;19932;-75
2022/12/15 06:43:54;;;;;;;;;;;-3.80;90.80;;;;;;5016611;28;19972;-75
2022/12/15 06:46:20;;;;;;;;;;;-3.80;90.80;;;;;;5030434;28;19928;-74
2022/12/15 06:48:46;;;;;;;;;;;-3.90;90.80;;;;;;5032797;28;19928;-74
2022/12/15 06:51:12;;;;;;;;;;;-3.90;90.80;;;;;;5016927;28;19932;-75
2022/12/15 06:53:39;;;;;;;;;;;-3.90;90.90;;;;;;5033053;28;19928;-76
2022/12/15 06:56:06;;;;;;;;;;;-3.90;90.90;;;;;;5034228;28;19956;-74
2022/12/15 06:58:32;;;;;;;;;;;-3.90;90.90;;;;;;5032580;28;19970;-76
2022/12/15 07:00:57;;;;;;;;;;;-3.90;90.90;;;;;;5031704;28;19925;-76
2022/12/15 07:03:23;;;;;;;;;;;-3.90;90.90;;;;;;5044091;28;19921;-75
2022/12/15 07:05:48;;;;;;;;;;;-4.00;90.90;;;;;;5035367;28;19921;-75
2022/12/15 07:08:14;;;;;;;;;;;-4.00;90.90;;;;;;5016911;28;19927;-74
2022/12/15 07:10:43;;;;;;;;;;;-4.00;90.90;;;;;;5031888;28;19929;-75
2022/12/15 07:13:11;;;;;;;;;;;-4.10;90.80;;;;;;5045986;28;19948;-75
2022/12/15 07:15:37;;;;;;;;;;;-4.10;90.90;;;;;;5033979;28;20608;-76
2022/12/15 07:18:02;;;;;;;;;;;-4.20;90.80;;;;;;5032060;28;19936;-76
2022/12/15 07:20:28;;;;;;;;;;;-4.20;90.90;;;;;;5015928;28;19936;-76
2022/12/15 07:22:53;;;;;;;;;;;-4.20;91.20;;;;;;5034089;28;20772;-75
2022/12/15 07:25:19;;;;;;;;;;;-4.20;90.90;;;;;;5030368;28;19916;-75
2022/12/15 07:27:45;;;;;;;;;;;-4.30;90.90;;;;;;5035068;28;20363;-75
2022/12/15 07:30:11;;;;;;;;;;;-4.30;90.90;;;;;;5034934;28;19996;-73
2022/12/15 07:32:37;;;;;;;;;;;-4.30;90.90;;;;;;5031574;28;19994;-74
2022/12/15 07:35:04;;;;;;;;;;;-4.30;90.90;;;;;;5034376;28;19948;-75
2022/12/15 07:37:29;;;;;;;;;;;-4.30;90.90;;;;;;5031702;28;20007;-76
2022/12/15 07:39:55;;;;;;;;;;;-4.30;90.90;;;;;;5032249;28;19958;-76
2022/12/15 07:42:20;;;;;;;;;;;-4.30;91.00;;;;;;5033257;28;20582;-75
2022/12/15 07:44:46;;;;;;;;;;;-4.30;91.00;;;;;;5030674;28;19970;-75
2022/12/15 07:47:11;;;;;;;;;;;-4.30;91.00;;;;;;5030327;28;19924;-73
2022/12/15 07:49:37;;;;;;;;;;;-4.40;90.90;;;;;;5032065;28;20007;-76
2022/12/15 07:52:03;;;;;;;;;;;-4.40;90.90;;;;;;5046678;28;19932;-75
2022/12/15 07:54:29;;;;;;;;;;;-4.50;90.90;;;;;;5031983;28;20003;-76
2022/12/15 07:56:54;;;;;;;;;;;-4.50;90.90;;;;;;5034595;28;19956;-76
2022/12/15 07:59:20;;;;;;;;;;;-4.50;90.90;;;;;;5032753;28;20004;-75
2022/12/15 08:01:45;;;;;;;;;;;-4.50;90.90;;;;;;5034275;28;20653;-75
2022/12/15 08:04:11;;;;;;;;;;;-4.50;90.90;;;;;;5048736;28;19924;-74
2022/12/15 08:06:36;;;;;;;;;;;-4.60;90.90;;;;;;5030839;28;19921;-76
2022/12/15 08:09:02;;;;;;;;;;;-4.60;90.90;;;;;;5034278;28;19936;-76
2022/12/15 08:11:27;;;;;;;;;;;-4.60;91.00;;;;;;5029224;28;20026;-75
2022/12/15 08:13:52;;;;;;;;;;;-4.60;90.90;;;;;;5032482;28;19921;-76
2022/12/15 08:16:18;;;;;;;;;;;-4.60;91.00;;;;;;5025332;28;19921;-74
2022/12/15 08:18:44;;;;;;;;;;;-4.60;91.00;;;;;;5025572;28;19927;-75
2022/12/15 08:21:09;;;;;;;;;;;-4.60;91.00;;;;;;5029308;28;19932;-74
2022/12/15 08:23:35;;;;;;;;;;;-4.60;91.00;;;;;;5029913;28;19935;-75
2022/12/15 08:26:04;;;;;;;;;;;-4.60;91.00;;;;;;5028179;28;20395;-74
2022/12/15 08:28:31;;;;;;;;;;;-4.60;91.10;;;;;;5026926;28;20008;-76
2022/12/15 08:31:05;;;;;;;;;;;-4.50;91.10;;;;;;5031417;28;19921;-75
2022/12/15 08:33:31;;;;;;;;;;;-4.50;91.10;;;;;;5043617;28;20390;-75
2022/12/15 08:35:57;;;;;;;;;;;-4.50;91.10;;;;;;5015613;28;19921;-76
2022/12/15 08:38:23;;;;;;;;;;;-4.40;91.10;;;;;;5032347;28;20045;-75
2022/12/15 08:40:48;;;;;;;;;;;-4.40;91.10;;;;;;5032839;28;20567;-76
2022/12/15 08:43:14;;;;;;;;;;;-4.40;91.10;;;;;;5029158;28;19983;-74
2022/12/15 08:45:39;;;;;;;;;;;-4.30;91.20;;;;;;5030792;28;19921;-76
2022/12/15 08:48:05;;;;;;;;;;;-4.20;91.20;;;;;;5031484;28;19928;-75
2022/12/15 08:50:30;;;;;;;;;;;-4.20;91.20;;;;;;5027267;28;19921;-75
2022/12/15 08:52:56;;;;;;;;;;;-4.10;91.20;;;;;;5035818;28;19925;-76
2022/12/15 08:55:22;;;;;;;;;;;-4.10;91.20;;;;;;5030130;28;20023;-75
2022/12/15 08:57:48;;;;;;;;;;;-4.00;91.20;;;;;;5022971;28;19924;-74
2022/12/15 09:00:14;;;;;;;;;;;-3.90;91.20;;;;;;5043679;28;19921;-76
2022/12/15 09:02:40;;;;;;;;;;;-3.90;91.20;;;;;;5031866;28;19928;-75
2022/12/15 09:05:05;;;;;;;;;;;-3.80;91.20;;;;;;5017947;28;19951;-76
2022/12/15 09:07:31;;;;;;;;;;;-3.70;91.20;;;;;;5029161;28;19920;-76
2022/12/15 09:09:57;;;;;;;;;;;-3.60;91.30;;;;;;5032926;28;19929;-75
2022/12/15 09:12:22;;;;;;;;;;;-3.50;91.30;;;;;;5029742;28;19928;-74
2022/12/15 09:14:47;;;;;;;;;;;-3.50;91.30;;;;;;5030033;28;20594;-76
2022/12/15 09:17:14;;;;;;;;;;;-3.30;91.30;;;;;;5015009;28;20003;-76
2022/12/15 09:19:40;;;;;;;;;;;-3.20;91.30;;;;;;5029548;28;19925;-76
2022/12/15 09:22:06;;;;;;;;;;;-3.10;91.30;;;;;;5032266;28;19931;-76
2022/12/15 09:24:32;;;;;;;;;;;-3.10;91.30;;;;;;5032571;28;19924;-76
2022/12/15 09:26:57;;;;;;;;;;;-3.00;91.30;;;;;;5031348;28;20385;-75
2022/12/15 09:29:23;;;;;;;;;;;-2.90;91.30;;;;;;5031448;28;19951;-76
2022/12/15 09:31:48;;;;;;;;;;;-2.80;91.20;;;;;;5034777;28;20314;-76
2022/12/15 09:34:14;;;;;;;;;;;-2.80;91.20;;;;;;5030686;28;19921;-74
2022/12/15 09:36:40;;;;;;;;;;;-2.70;91.20;;;;;;5031154;28;20019;-75
2022/12/15 09:39:05;;;;;;;;;;;-2.60;91.20;;;;;;5031279;28;19925;-76
2022/12/15 09:41:31;;;;;;;;;;;-2.60;91.10;;;;;;5027496;28;19998;-76
2022/12/15 09:44:03;;;;;;;;;;;-2.60;91.10;;;;;;5031986;28;19960;-76
2022/12/15 09:46:28;;;;;;;;;;;-2.50;91.20;;;;;;5030540;28;20530;-76
2022/12/15 09:48:54;;;;;;;;;;;-2.30;91.20;;;;;;5025318;28;19970;-76
2022/12/15 09:51:19;;;;;;;;;;;-2.30;91.20;;;;;;5031704;28;19924;-76
2022/12/15 09:53:45;;;;;;;;;;;-2.20;91.20;;;;;;5031902;28;20014;-76
2022/12/15 09:56:32;;;;;;;;;;;-2.10;91.20;;;;;;5030664;28;19921;-76
2022/12/15 09:59:00;;;;;;;;;;;-2.00;91.10;;;;;;5030236;28;20592;-76
2022/12/15 10:01:46;;;;;;;;;;;-1.90;91.10;;;;;;5044711;28;19921;-75
2022/12/15 10:04:12;;;;;;;;;;;-1.80;91.10;;;;;;5028824;28;19932;-75
2022/12/15 10:06:44;;;;;;;;;;;-1.70;91.10;;;;;;5027148;28;19917;-75
2022/12/15 10:09:12;;;;;;;;;;;-1.70;91.10;;;;;;5012295;28;19925;-73
2022/12/15 10:11:47;;;;;;;;;;;-1.60;91.10;;;;;;5042131;28;20012;-75
2022/12/15 10:14:30;;;;;;;;;;;-1.40;91.10;;;;;;5044905;28;19917;-75
2022/12/15 10:17:01;;;;;;;;;;;-1.40;91.00;;;;;;5046631;28;20660;-76
2022/12/15 10:19:32;;;;;;;;;;;-1.20;91.10;;;;;;5044814;28;19931;-76
2022/12/15 10:21:58;;;;;;;;;;;-1.10;91.10;;;;;;5030208;28;20212;-75
2022/12/15 10:24:23;;;;;;;;;;;-1.00;91.10;;;;;;5029045;28;20406;-75
2022/12/15 10:26:58;;;;;;;;;;;-0.90;91.00;;;;;;5031843;28;19981;-76
2022/12/15 10:29:35;;;;;;;;;;;-0.80;91.00;;;;;;5026992;28;19925;-76
2022/12/15 10:32:04;;;;;;;;;;;-0.60;91.00;;;;;;5031389;28;20047;-76
2022/12/15 10:34:33;;;;;;;;;;;-0.50;91.00;;;;;;5044809;28;20563;-75
2022/12/15 10:36:58;;;;;;;;;;;-0.40;91.00;;;;;;5045054;28;20385;-75
2022/12/15 10:39:36;;;;;;;;;;;-0.20;91.00;;;;;;5028560;28;19921;-76
2022/12/15 10:42:08;;;;;;;;;;;-0.10;90.90;;;;;;5030169;28;20452;-75
2022/12/15 10:44:36;;;;;;;;;;;0.00;90.90;;;;;;5027646;28;19920;-75
2022/12/15 10:47:07;;;;;;;;;;;0.20;90.90;;;;;;5027193;28;19960;-76
2022/12/15 10:49:33;;;;;;;;;;;0.30;90.80;;;;;;5028620;28;20007;-76
2022/12/15 10:51:59;;;;;;;;;;;0.40;90.80;;;;;;5047019;28;20279;-76
2022/12/15 10:54:33;;;;;;;;;;;0.60;90.80;;;;;;5026102;28;20035;-76
2022/12/15 10:56:59;;;;;;;;;;;0.70;90.80;;;;;;5029885;28;19966;-75
2022/12/15 10:59:24;;;;;;;;;;;0.80;90.70;;;;;;5010466;28;19920;-76
2022/12/15 11:01:50;;;;;;;;;;;1.00;90.80;;;;;;5029796;28;20229;-76
2022/12/15 11:04:25;;;;;;;;;;;1.10;90.70;;;;;;5025830;28;19932;-76
2022/12/15 11:06:54;;;;;;;;;;;1.20;90.60;;;;;;5032015;28;20637;-73
2022/12/15 11:09:25;;;;;;;;;;;1.30;90.60;;;;;;5028558;28;19929;-73
2022/12/15 11:14:40;;;;;;;;;;;1.50;90.50;;;;;;5025021;28;19978;-76
2022/12/15 11:17:06;;;;;;;;;;;1.60;90.50;;;;;;5013650;28;19928;-76
2022/12/15 11:19:37;;;;;;;;;;;1.70;90.50;;;;;;5044326;28;19921;-76
2022/12/15 11:22:15;;;;;;;;;;;1.80;90.50;;;;;;5028202;28;19928;-77
2022/12/15 11:24:48;;;;;;;;;;;1.90;90.50;;;;;;5028881;28;20749;-76
2022/12/15 11:27:20;;;;;;;;;;;2.00;90.50;;;;;;5030828;28;19928;-74
2022/12/15 11:30:11;;;;;;;;;;;2.10;90.50;;;;;;5028379;28;19925;-77
2022/12/15 11:32:37;;;;;;;;;;;2.30;90.40;;;;;;5027031;28;19921;-76
2022/12/15 11:35:03;;;;;;;;;;;2.40;90.40;;;;;;5032184;28;19921;-76
2022/12/15 11:37:36;;;;;;;;;;;2.50;90.30;;;;;;5032956;28;20006;-75
2022/12/15 11:40:04;;;;;;;;;;;2.60;90.30;;;;;;5035464;28;19983;-76
2022/12/15 11:42:48;;;;;;;;;;;2.60;90.20;;;;;;5032217;28;20408;-77
2022/12/15 11:45:17;;;;;;;;;;;2.60;90.10;;;;;;5032873;28;19975;-73
2022/12/15 11:47:44;;;;;;;;;;;2.70;90.10;;;;;;5030856;28;19924;-75
2022/12/15 11:50:30;;;;;;;;;;;2.70;90.10;;;;;;5045555;28;19913;-75
2022/12/15 11:53:01;;;;;;;;;;;2.80;90.10;;;;;;5033759;28;19924;-76
2022/12/15 11:55:47;;;;;;;;;;;3.00;90.10;;;;;;5034405;28;19924;-76
2022/12/15 11:58:24;;;;;;;;;;;3.10;90.10;;;;;;5024030;28;20011;-76
2022/12/15 12:00:54;;;;;;;;;;;3.20;90.10;;;;;;5017324;28;19991;-73
2022/12/15 12:03:30;;;;;;;;;;;3.30;90.00;;;;;;5030586;28;19924;-77
2022/12/15 12:06:21;;;;;;;;;;;3.40;90.00;;;;;;5030774;28;19979;-76
2022/12/15 12:08:55;;;;;;;;;;;3.40;89.90;;;;;;5028725;28;19925;-76
2022/12/15 12:11:22;;;;;;;;;;;3.50;89.80;;;;;;5030258;28;19921;-74
2022/12/15 12:13:47;;;;;;;;;;;3.50;89.80;;;;;;5034611;28;19920;-76
2022/12/15 12:16:13;;;;;;;;;;;3.60;89.70;;;;;;5031531;28;19975;-77
2022/12/15 12:18:39;;;;;;;;;;;3.60;89.80;;;;;;5034239;28;19924;-75
2022/12/15 12:21:31;;;;;;;;;;;3.70;89.70;;;;;;5049356;28;19921;-76
2022/12/15 12:23:58;;;;;;;;;;;3.80;89.80;;;;;;5028732;28;19925;-76
2022/12/15 12:26:39;;;;;;;;;;;3.90;89.70;;;;;;5046347;28;20387;-76
2022/12/15 12:29:31;;;;;;;;;;;3.90;89.60;;;;;;5030168;28;19929;-76
2022/12/15 12:32:14;;;;;;;;;;;4.00;89.50;;;;;;5028882;28;19921;-77
2022/12/15 12:34:49;;;;;;;;;;;4.00;89.30;;;;;;5032890;28;19927;-76
2022/12/15 12:37:17;;;;;;;;;;;4.00;89.20;;;;;;5034117;28;20374;-75
2022/12/15 12:39:43;;;;;;;;;;;4.00;89.00;;;;;;5032213;28;19946;-76
2022/12/15 12:42:11;;;;;;;;;;;3.90;88.90;;;;;;5047232;28;20314;-76
2022/12/15 12:44:36;;;;;;;;;;;3.90;89.10;;;;;;5032976;28;19934;-77
2022/12/15 12:47:11;;;;;;;;;;;3.90;89.20;;;;;;5031997;28;20303;-75
2022/12/15 12:49:39;;;;;;;;;;;3.90;89.10;;;;;;5045966;28;20011;-76
2022/12/15 12:52:05;;;;;;;;;;;3.90;89.10;;;;;;5031238;28;19928;-76
2022/12/15 12:54:33;;;;;;;;;;;3.90;89.10;;;;;;5014398;28;19920;-76
2022/12/15 12:56:58;;;;;;;;;;;3.90;89.20;;;;;;5032883;28;19928;-76
2022/12/15 12:59:27;;;;;;;;;;;3.90;89.10;;;;;;5031761;28;19920;-76
2022/12/15 13:01:53;;;;;;;;;;;3.90;89.10;;;;;;5032162;28;19955;-76
2022/12/15 13:04:38;;;;;;;;;;;3.80;89.00;;;;;;5032495;28;21948;-76
2022/12/15 13:07:06;;;;;;;;;;;3.80;89.00;;;;;;5032141;28;19924;-74
2022/12/15 13:09:36;;;;;;;;;;;3.80;88.90;;;;;;5029611;28;20453;-75
2022/12/15 13:12:01;;;;;;;;;;;3.80;88.90;;;;;;5028281;28;19974;-75
2022/12/15 13:14:41;;;;;;;;;;;3.80;88.90;;;;;;5029207;28;19925;-74
2022/12/15 13:17:39;;;;;;;;;;;3.80;88.90;;;;;;5029828;28;19921;-76
2022/12/15 13:20:06;;;;;;;;;;;3.70;88.80;;;;;;5010397;28;19956;-75
2022/12/15 13:22:32;;;;;;;;;;;3.70;88.80;;;;;;5047336;28;19924;-76
2022/12/15 13:24:58;;;;;;;;;;;3.60;88.80;;;;;;5014238;28;20405;-74
2022/12/15 13:27:24;;;;;;;;;;;3.60;89.00;;;;;;5031610;28;19956;-76
2022/12/15 13:29:53;;;;;;;;;;;3.60;89.10;;;;;;5030295;28;19929;-75
2022/12/15 13:32:27;;;;;;;;;;;3.50;89.00;;;;;;5027219;28;19960;-75
2022/12/15 13:34:52;;;;;;;;;;;3.50;89.10;;;;;;5030998;28;19986;-76
2022/12/15 13:37:37;;;;;;;;;;;3.50;89.00;;;;;;5015057;28;20325;-75
2022/12/15 13:40:16;;;;;;;;;;;3.40;89.00;;;;;;5033607;28;19928;-75
2022/12/15 13:42:41;;;;;;;;;;;3.40;89.10;;;;;;5028516;28;19924;-76
2022/12/15 13:45:13;;;;;;;;;;;3.30;89.00;;;;;;5028560;28;19932;-76
2022/12/15 13:47:38;;;;;;;;;;;3.30;89.00;;;;;;5028385;28;19973;-76
2022/12/15 13:50:14;;;;;;;;;;;3.20;88.90;;;;;;5030891;28;19925;-76
2022/12/15 13:52:42;;;;;;;;;;;3.10;89.00;;;;;;5026609;28;20298;-76
2022/12/15 13:55:15;;;;;;;;;;;3.10;89.80;;;;;;5047298;28;20446;-76
2022/12/15 13:57:44;;;;;;;;;;;3.10;89.10;;;;;;5028731;28;19923;-76
2022/12/15 14:00:17;;;;;;;;;;;3.10;89.10;;;;;;5048011;28;19978;-74
2022/12/15 14:02:43;;;;;;;;;;;3.00;89.00;;;;;;5029033;28;19929;-76
2022/12/15 14:05:16;;;;;;;;;;;3.00;89.00;;;;;;5047060;28;20502;-76
2022/12/15 14:08:02;;;;;;;;;;;2.90;89.10;;;;;;5032033;28;19999;-75
2022/12/15 14:10:28;;;;;;;;;;;2.90;89.10;;;;;;5030980;28;19925;-76
2022/12/15 14:12:54;;;;;;;;;;;2.90;89.20;;;;;;5027950;28;20625;-76
2022/12/15 14:15:22;;;;;;;;;;;2.90;89.20;;;;;;5014982;28;20580;-75
2022/12/15 14:17:52;;;;;;;;;;;2.80;89.10;;;;;;5027753;28;20566;-76
2022/12/15 14:20:25;;;;;;;;;;;2.80;89.10;;;;;;5030701;28;19920;-76
2022/12/15 14:22:52;;;;;;;;;;;2.70;89.00;;;;;;5043095;28;19925;-75
2022/12/15 14:25:19;;;;;;;;;;;2.60;89.70;;;;;;5012950;28;19921;-76
2022/12/15 14:27:44;;;;;;;;;;;2.60;89.20;;;;;;5028342;28;19987;-76
2022/12/15 14:30:21;;;;;;;;;;;2.60;89.30;;;;;;5045724;28;20533;-75
2022/12/15 14:32:48;;;;;;;;;;;2.60;89.40;;;;;;5028153;28;19983;-76
2022/12/15 14:35:23;;;;;;;;;;;2.60;89.50;;;;;;5027391;28;19974;-75
2022/12/15 14:37:49;;;;;;;;;;;2.60;89.80;;;;;;5029153;28;20027;-74
2022/12/15 14:40:15;;;;;;;;;;;2.70;90.00;;;;;;5023602;28;20998;-74
2022/12/15 14:42:40;;;;;;;;;;;2.70;90.00;;;;;;5027880;28;20402;-75
2022/12/15 14:45:12;;;;;;;;;;;2.80;90.10;;;;;;5028960;28;19925;-76
2022/12/15 14:47:38;;;;;;;;;;;2.90;90.10;;;;;;5029877;28;19928;-75
2022/12/15 14:50:03;;;;;;;;;;;3.00;90.10;;;;;;5016016;28;19963;-75
2022/12/15 14:52:29;;;;;;;;;;;3.10;90.00;;;;;;5028985;28;20015;-75
2022/12/15 14:54:55;;;;;;;;;;;3.00;89.50;;;;;;5029834;28;19995;-76
2022/12/15 14:57:25;;;;;;;;;;;3.00;89.20;;;;;;5044180;28;19925;-75
2022/12/15 14:59:51;;;;;;;;;;;2.90;89.10;;;;;;5029155;28;20437;-75
2022/12/15 15:02:28;;;;;;;;;;;2.80;88.80;;;;;;5029462;28;20446;-76
2022/12/15 15:04:53;;;;;;;;;;;2.70;88.60;;;;;;5025931;28;19928;-76
2022/12/15 15:07:19;;;;;;;;;;;2.50;88.40;;;;;;5044755;28;19921;-75
2022/12/15 15:09:44;;;;;;;;;;;2.40;88.30;;;;;;5032468;28;21337;-75
2022/12/15 15:12:17;;;;;;;;;;;2.30;88.30;;;;;;5013710;28;20012;-74
2022/12/15 15:14:44;;;;;;;;;;;2.20;88.40;;;;;;5032522;28;20449;-75
2022/12/15 15:17:13;;;;;;;;;;;2.10;88.40;;;;;;5031762;28;20877;-76
2022/12/15 15:19:52;;;;;;;;;;;1.90;88.30;;;;;;5032106;28;20000;-75
2022/12/15 15:22:21;;;;;;;;;;;1.80;88.10;;;;;;5033306;28;19921;-76
2022/12/15 15:24:49;;;;;;;;;;;1.60;88.10;;;;;;5032665;28;20062;-76
2022/12/15 15:27:23;;;;;;;;;;;1.50;88.30;;;;;;5034276;28;20435;-73
2022/12/15 15:29:49;;;;;;;;;;;1.40;88.30;;;;;;5027397;28;19920;-74
2022/12/15 15:32:15;;;;;;;;;;;1.20;88.20;;;;;;5032591;28;20373;-74
2022/12/15 15:34:41;;;;;;;;;;;1.10;88.30;;;;;;5030146;28;19917;-75
2022/12/15 15:37:19;;;;;;;;;;;1.00;88.30;;;;;;5016941;28;19921;-76
2022/12/15 15:39:48;;;;;;;;;;;0.90;88.40;;;;;;5029679;28;19960;-76
2022/12/15 15:42:14;;;;;;;;;;;0.80;88.50;;;;;;5033253;28;19925;-72
2022/12/15 15:44:39;;;;;;;;;;;0.70;88.70;;;;;;5029812;28;19928;-75
2022/12/15 15:47:05;;;;;;;;;;;0.60;88.80;;;;;;5031198;28;20004;-75
2022/12/15 15:49:30;;;;;;;;;;;0.60;89.00;;;;;;5046441;28;19947;-75
2022/12/15 15:51:57;;;;;;;;;;;0.50;88.90;;;;;;5014977;28;20016;-75
2022/12/15 15:54:22;;;;;;;;;;;0.40;88.80;;;;;;5014668;28;19978;-75
2022/12/15 15:56:48;;;;;;;;;;;0.30;88.70;;;;;;5043858;28;19925;-75
2022/12/15 15:59:15;;;;;;;;;;;0.20;88.70;;;;;;5031280;28;19932;-76
2022/12/15 16:01:40;;;;;;;;;;;0.10;88.90;;;;;;5017018;28;19927;-75
2022/12/15 16:04:06;;;;;;;;;;;0.00;89.10;;;;;;5034826;28;19925;-75
2022/12/15 16:06:31;;;;;;;;;;;0.00;89.40;;;;;;5018379;28;20103;-76
2022/12/15 16:08:57;;;;;;;;;;;0.00;89.60;;;;;;5032740;28;19924;-74
2022/12/15 16:11:23;;;;;;;;;;;-0.10;89.40;;;;;;5031681;28;19999;-73
2022/12/15 16:13:48;;;;;;;;;;;-0.10;89.40;;;;;;5031964;28;19921;-75
2022/12/15 16:16:15;;;;;;;;;;;-0.20;89.30;;;;;;5029078;28;19956;-73
2022/12/15 16:18:41;;;;;;;;;;;-0.20;89.50;;;;;;5012801;28;20490;-75
2022/12/15 16:21:08;;;;;;;;;;;-0.30;89.50;;;;;;5031589;28;19924;-75
2022/12/15 16:23:33;;;;;;;;;;;-0.30;89.70;;;;;;5030554;28;19982;-75
2022/12/15 16:25:59;;;;;;;;;;;-0.30;89.80;;;;;;5035014;28;20574;-75
2022/12/15 16:28:25;;;;;;;;;;;-0.40;89.80;;;;;;5046899;28;19925;-75
2022/12/15 16:30:51;;;;;;;;;;;-0.40;89.90;;;;;;5017825;28;19971;-75
2022/12/15 16:33:16;;;;;;;;;;;-0.40;90.00;;;;;;5047766;28;19925;-75
2022/12/15 16:35:42;;;;;;;;;;;-0.50;89.90;;;;;;5028933;28;20516;-76
2022/12/15 16:38:27;;;;;;;;;;;-0.50;89.90;;;;;;5013100;28;20024;-76
2022/12/15 16:40:52;;;;;;;;;;;-0.50;90.00;;;;;;5049883;28;20792;-75
2022/12/15 16:43:18;;;;;;;;;;;-0.50;90.00;;;;;;5046477;28;19929;-75
2022/12/15 16:45:46;;;;;;;;;;;-0.60;90.00;;;;;;5030670;28;19925;-75
2022/12/15 16:48:11;;;;;;;;;;;-0.60;90.00;;;;;;5031052;28;19917;-76
2022/12/15 16:50:37;;;;;;;;;;;-0.60;90.10;;;;;;5016735;28;19928;-75